Time;durP1;ratioP1;P1;durP2;ratioP2;P2;SDS_P1;SDS_P2;PMS_P1;PMS_P2;Temp;Humidity;BMP_temperature;BMP_pressure;BME280_temperature;BME280_humidity;BME280_pressure;Samples;Min_cycle;Max_cycle;Signal;HPM_P1;HPM_P2
2021/12/30 00:00:09;;;;;;;;;;;12.20;1.00;;;;;;5016002;28;19910;-84
2021/12/30 00:02:34;;;;;;;;;;;12.20;1.00;;;;;;5013997;28;20321;-84
2021/12/30 00:05:00;;;;;;;;;;;12.20;1.00;;;;;;5012846;28;19918;-83
2021/12/30 00:07:27;;;;;;;;;;;12.20;1.00;;;;;;5016419;28;20370;-83
2021/12/30 00:09:53;;;;;;;;;;;12.20;1.00;;;;;;5015885;28;20378;-85
2021/12/30 00:12:18;;;;;;;;;;;12.20;1.00;;;;;;5014096;28;19921;-84
2021/12/30 00:14:44;;;;;;;;;;;12.20;1.00;;;;;;5016630;28;19932;-83
2021/12/30 00:17:09;;;;;;;;;;;12.20;1.00;;;;;;5015283;28;20378;-85
2021/12/30 00:19:35;;;;;;;;;;;12.20;1.00;;;;;;5016388;28;19923;-83
2021/12/30 00:22:00;;;;;;;;;;;12.20;1.00;;;;;;5011212;28;19914;-83
2021/12/30 00:24:26;;;;;;;;;;;12.20;1.00;;;;;;4994475;28;20358;-84
2021/12/30 00:26:51;;;;;;;;;;;12.30;1.00;;;;;;5007311;28;20017;-85
2021/12/30 00:29:17;;;;;;;;;;;12.30;1.00;;;;;;5015322;28;19909;-83
2021/12/30 00:31:42;;;;;;;;;;;12.30;1.00;;;;;;5013602;28;20008;-84
2021/12/30 00:34:08;;;;;;;;;;;12.30;1.00;;;;;;5014316;28;20321;-83
2021/12/30 00:36:33;;;;;;;;;;;12.30;1.00;;;;;;5014140;28;19914;-83
2021/12/30 00:38:59;;;;;;;;;;;12.30;1.00;;;;;;5015858;28;19910;-84
2021/12/30 00:41:24;;;;;;;;;;;12.30;1.00;;;;;;5017284;28;19948;-83
2021/12/30 00:43:49;;;;;;;;;;;12.30;1.00;;;;;;5017190;28;20370;-83
2021/12/30 00:46:15;;;;;;;;;;;12.30;1.00;;;;;;5017772;28;19940;-84
2021/12/30 00:48:41;;;;;;;;;;;12.30;1.00;;;;;;5018376;28;19932;-83
2021/12/30 00:51:07;;;;;;;;;;;12.30;1.00;;;;;;5015476;28;19913;-83
2021/12/30 00:53:32;;;;;;;;;;;12.30;1.00;;;;;;5012491;28;19914;-84
2021/12/30 00:55:58;;;;;;;;;;;12.20;1.00;;;;;;5017573;28;19917;-83
2021/12/30 00:58:23;;;;;;;;;;;12.20;1.00;;;;;;5018671;28;19909;-83
2021/12/30 01:00:49;;;;;;;;;;;12.20;1.00;;;;;;5016999;28;19914;-83
2021/12/30 01:03:15;;;;;;;;;;;12.30;1.00;;;;;;4999573;28;19928;-83
2021/12/30 01:05:41;;;;;;;;;;;12.30;1.00;;;;;;5018071;28;19909;-84
2021/12/30 01:08:07;;;;;;;;;;;12.30;1.00;;;;;;4998018;28;19936;-83
2021/12/30 01:10:33;;;;;;;;;;;12.30;1.00;;;;;;5016583;28;20417;-83
2021/12/30 01:13:04;;;;;;;;;;;12.30;1.00;;;;;;5017519;28;19922;-83
2021/12/30 01:15:45;;;;;;;;;;;12.30;1.00;;;;;;5017564;28;19925;-84
2021/12/30 01:18:29;;;;;;;;;;;12.30;1.00;;;;;;5017950;28;19926;-83
2021/12/30 01:20:55;;;;;;;;;;;12.30;1.00;;;;;;5000509;28;19913;-83
2021/12/30 01:23:22;;;;;;;;;;;12.30;1.00;;;;;;5010249;28;19917;-83
2021/12/30 01:25:47;;;;;;;;;;;12.30;1.00;;;;;;5016890;28;19968;-83
2021/12/30 01:28:13;;;;;;;;;;;12.40;1.00;;;;;;4996745;28;19917;-83
2021/12/30 01:30:38;;;;;;;;;;;12.40;1.00;;;;;;5023437;28;19914;-83
2021/12/30 01:33:04;;;;;;;;;;;12.40;1.00;;;;;;4998062;28;19910;-83
2021/12/30 01:35:30;;;;;;;;;;;12.40;1.00;;;;;;5016412;28;19921;-84
2021/12/30 01:37:59;;;;;;;;;;;12.40;1.00;;;;;;5017968;28;20395;-84
2021/12/30 01:40:24;;;;;;;;;;;12.40;1.00;;;;;;5018083;28;19913;-83
2021/12/30 01:42:50;;;;;;;;;;;12.40;1.00;;;;;;5017544;28;20382;-83
2021/12/30 01:45:16;;;;;;;;;;;12.50;1.00;;;;;;5014432;28;19925;-83
2021/12/30 01:47:49;;;;;;;;;;;12.50;1.00;;;;;;5016523;28;19913;-83
2021/12/30 01:50:14;;;;;;;;;;;12.50;1.00;;;;;;5018151;28;19981;-84
2021/12/30 01:52:40;;;;;;;;;;;12.50;1.00;;;;;;5018717;28;19955;-84
2021/12/30 01:55:06;;;;;;;;;;;12.50;1.00;;;;;;5021941;28;20016;-84
2021/12/30 01:57:31;;;;;;;;;;;12.60;1.00;;;;;;5020829;28;20376;-83
2021/12/30 01:59:57;;;;;;;;;;;12.60;1.00;;;;;;5021328;28;19910;-83
2021/12/30 02:02:22;;;;;;;;;;;12.60;1.00;;;;;;5010143;28;19921;-83
2021/12/30 02:04:48;;;;;;;;;;;12.60;1.10;;;;;;5027715;28;19956;-84
2021/12/30 02:07:14;;;;;;;;;;;12.60;2.30;;;;;;5022047;28;19921;-84
2021/12/30 02:09:40;;;;;;;;;;;12.70;4.40;;;;;;4999463;28;19914;-84
2021/12/30 02:12:06;;;;;;;;;;;12.70;6.50;;;;;;5016178;28;19997;-84
2021/12/30 02:14:35;;;;;;;;;;;12.70;9.40;;;;;;5021396;28;20263;-84
2021/12/30 02:17:00;;;;;;;;;;;12.70;10.40;;;;;;5020054;28;19913;-84
2021/12/30 02:19:27;;;;;;;;;;;12.70;11.00;;;;;;5019296;28;20430;-83
2021/12/30 02:21:52;;;;;;;;;;;12.80;13.30;;;;;;5018535;28;19914;-83
2021/12/30 02:24:17;;;;;;;;;;;12.80;17.50;;;;;;4998764;28;20032;-84
2021/12/30 02:26:43;;;;;;;;;;;12.80;19.90;;;;;;5015193;28;19953;-83
2021/12/30 02:29:08;;;;;;;;;;;12.80;23.10;;;;;;5017462;28;19909;-83
2021/12/30 02:31:34;;;;;;;;;;;12.80;27.30;;;;;;5015514;28;19924;-84
2021/12/30 02:34:00;;;;;;;;;;;12.80;29.10;;;;;;5018271;28;19973;-83
2021/12/30 02:36:27;;;;;;;;;;;12.80;31.60;;;;;;5018257;28;19926;-83
2021/12/30 02:38:53;;;;;;;;;;;12.80;35.50;;;;;;5019816;28;20396;-84
2021/12/30 02:41:19;;;;;;;;;;;12.80;38.80;;;;;;5019075;28;19964;-84
2021/12/30 02:43:47;;;;;;;;;;;12.80;40.80;;;;;;5019496;28;19983;-83
2021/12/30 02:46:13;;;;;;;;;;;12.80;43.70;;;;;;5020277;28;20309;-83
2021/12/30 02:48:41;;;;;;;;;;;12.80;46.00;;;;;;4996858;28;19921;-83
2021/12/30 02:51:08;;;;;;;;;;;12.70;47.80;;;;;;5012578;28;19914;-83
2021/12/30 02:53:33;;;;;;;;;;;12.70;49.50;;;;;;5015442;28;19917;-83
2021/12/30 02:55:59;;;;;;;;;;;12.70;51.50;;;;;;5015441;28;19913;-83
2021/12/30 02:58:25;;;;;;;;;;;12.70;53.40;;;;;;4998047;28;19967;-83
2021/12/30 03:00:57;;;;;;;;;;;12.70;54.90;;;;;;4994312;28;19944;-83
2021/12/30 03:03:23;;;;;;;;;;;12.70;56.50;;;;;;5010509;28;19924;-83
2021/12/30 03:05:49;;;;;;;;;;;12.70;57.90;;;;;;5014692;28;19913;-84
2021/12/30 03:08:15;;;;;;;;;;;12.70;58.90;;;;;;5015327;28;19918;-83
2021/12/30 03:10:41;;;;;;;;;;;12.70;60.70;;;;;;5014417;28;20016;-83
2021/12/30 03:13:08;;;;;;;;;;;12.70;61.70;;;;;;4997765;28;19952;-84
2021/12/30 03:15:34;;;;;;;;;;;12.80;62.10;;;;;;5014169;28;19937;-83
2021/12/30 03:17:59;;;;;;;;;;;12.80;61.90;;;;;;5015674;28;19909;-83
2021/12/30 03:20:25;;;;;;;;;;;12.80;62.40;;;;;;5013031;28;20380;-84
2021/12/30 03:22:50;;;;;;;;;;;12.80;63.10;;;;;;5014768;28;19910;-83
2021/12/30 03:25:16;;;;;;;;;;;12.80;63.50;;;;;;4995126;28;19964;-83
2021/12/30 03:27:43;;;;;;;;;;;12.80;64.20;;;;;;5014792;28;19910;-83
2021/12/30 03:30:11;;;;;;;;;;;12.80;64.90;;;;;;4996408;28;19914;-84
2021/12/30 03:32:36;;;;;;;;;;;12.80;65.80;;;;;;5014794;28;19910;-84
2021/12/30 03:35:02;;;;;;;;;;;12.90;66.40;;;;;;5013076;28;19929;-84
2021/12/30 03:37:28;;;;;;;;;;;12.90;66.90;;;;;;5010811;28;19914;-83
2021/12/30 03:39:53;;;;;;;;;;;12.90;67.30;;;;;;5014283;28;20008;-83
2021/12/30 03:42:19;;;;;;;;;;;12.90;67.70;;;;;;4994500;28;20381;-83
2021/12/30 03:44:45;;;;;;;;;;;12.90;67.90;;;;;;4993691;28;20008;-84
2021/12/30 03:47:17;;;;;;;;;;;12.90;68.30;;;;;;5014175;28;19909;-83
2021/12/30 03:49:44;;;;;;;;;;;12.90;68.60;;;;;;5014440;28;20263;-83
2021/12/30 03:52:11;;;;;;;;;;;12.90;69.10;;;;;;5011850;28;19913;-83
2021/12/30 03:54:36;;;;;;;;;;;12.90;69.60;;;;;;5014142;28;20373;-83
2021/12/30 03:57:02;;;;;;;;;;;12.90;69.80;;;;;;5014579;28;19909;-83
2021/12/30 03:59:27;;;;;;;;;;;13.00;70.20;;;;;;5013122;28;19940;-83
2021/12/30 04:01:53;;;;;;;;;;;13.00;71.00;;;;;;5012408;28;19940;-83
2021/12/30 04:04:19;;;;;;;;;;;13.00;71.70;;;;;;5013931;28;20301;-83
2021/12/30 04:06:44;;;;;;;;;;;13.00;71.80;;;;;;5014150;28;19918;-83
2021/12/30 04:09:10;;;;;;;;;;;13.00;71.80;;;;;;5013486;28;19987;-83
2021/12/30 04:11:36;;;;;;;;;;;13.00;72.20;;;;;;4996775;28;19909;-83
2021/12/30 04:14:03;;;;;;;;;;;13.10;72.40;;;;;;5014791;28;20285;-83
2021/12/30 04:16:29;;;;;;;;;;;13.10;72.60;;;;;;5018430;28;19910;-83
2021/12/30 04:18:54;;;;;;;;;;;13.10;72.90;;;;;;5018054;28;20293;-83
2021/12/30 04:21:20;;;;;;;;;;;13.10;73.80;;;;;;5017172;28;19960;-83
2021/12/30 04:23:46;;;;;;;;;;;13.10;74.10;;;;;;5015697;28;19921;-83
2021/12/30 04:26:11;;;;;;;;;;;13.20;74.50;;;;;;5018603;28;19909;-84
2021/12/30 04:28:37;;;;;;;;;;;13.20;74.30;;;;;;5017239;28;19914;-83
2021/12/30 04:31:03;;;;;;;;;;;13.20;74.50;;;;;;5017378;28;19914;-83
2021/12/30 04:33:29;;;;;;;;;;;13.20;74.60;;;;;;5017705;28;20277;-83
2021/12/30 04:35:56;;;;;;;;;;;13.30;75.20;;;;;;5015854;28;19921;-83
2021/12/30 04:38:26;;;;;;;;;;;13.30;75.00;;;;;;5017788;28;19914;-83
2021/12/30 04:40:51;;;;;;;;;;;13.30;74.50;;;;;;5017268;28;19913;-83
2021/12/30 04:43:17;;;;;;;;;;;13.30;74.20;;;;;;5054053;22;19924;-85
2021/12/30 04:45:43;;;;;;;;;;;13.40;74.50;;;;;;5043653;28;19919;-85
2021/12/30 04:48:09;;;;;;;;;;;13.40;74.20;;;;;;5049646;28;19909;-85
2021/12/30 04:50:34;;;;;;;;;;;13.40;73.50;;;;;;5063054;28;20352;-85
2021/12/30 04:53:00;;;;;;;;;;;13.40;73.00;;;;;;5038733;28;19957;-85
2021/12/30 04:55:25;;;;;;;;;;;13.50;72.90;;;;;;5044119;28;20453;-85
2021/12/30 04:57:50;;;;;;;;;;;13.50;72.10;;;;;;5061210;28;20142;-85
2021/12/30 05:00:16;;;;;;;;;;;13.50;70.90;;;;;;5053324;28;19991;-84
2021/12/30 05:03:27;;;;;;;;;;;13.60;69.40;;;;;;5036757;28;20351;-85
2021/12/30 05:05:27;;;;;;;;;;;13.60;67.60;;;;;;5042686;28;19924;-84
2021/12/30 05:07:53;;;;;;;;;;;13.60;66.30;;;;;;5036797;28;19916;-85
2021/12/30 05:10:18;;;;;;;;;;;13.70;65.70;;;;;;5054929;28;19909;-85
2021/12/30 05:12:45;;;;;;;;;;;13.60;64.20;;;;;;5028357;28;19921;-85
2021/12/30 05:15:11;;;;;;;;;;;13.70;63.60;;;;;;5054583;28;19908;-85
2021/12/30 05:17:36;;;;;;;;;;;13.70;62.60;;;;;;5043473;28;20008;-85
2021/12/30 05:20:03;;;;;;;;;;;13.70;62.30;;;;;;5031287;28;19963;-85
2021/12/30 05:22:28;;;;;;;;;;;13.70;61.60;;;;;;5032519;28;20383;-85
2021/12/30 05:24:54;;;;;;;;;;;13.80;60.60;;;;;;5049491;28;19971;-84
2021/12/30 05:27:19;;;;;;;;;;;13.80;59.70;;;;;;5047745;28;19912;-85
2021/12/30 05:29:45;;;;;;;;;;;13.80;58.90;;;;;;5049944;28;20071;-84
2021/12/30 05:32:11;;;;;;;;;;;13.80;58.00;;;;;;5030573;28;19917;-85
2021/12/30 05:34:36;;;;;;;;;;;13.80;58.20;;;;;;5047505;28;19920;-85
2021/12/30 05:37:02;;;;;;;;;;;13.80;58.10;;;;;;5021157;28;19909;-85
2021/12/30 05:39:29;;;;;;;;;;;13.80;57.80;;;;;;5051813;28;19988;-85
2021/12/30 05:41:54;;;;;;;;;;;13.80;57.30;;;;;;5030480;28;20036;-84
2021/12/30 05:44:20;;;;;;;;;;;13.80;57.90;;;;;;5051500;28;19921;-85
2021/12/30 05:46:45;;;;;;;;;;;13.90;57.80;;;;;;5029678;28;19916;-85
2021/12/30 05:49:11;;;;;;;;;;;13.90;57.80;;;;;;5030230;28;19909;-85
2021/12/30 05:51:36;;;;;;;;;;;13.90;57.60;;;;;;5040476;28;19924;-84
2021/12/30 05:54:02;;;;;;;;;;;13.90;57.20;;;;;;5058247;28;19935;-85
2021/12/30 05:56:27;;;;;;;;;;;13.90;57.10;;;;;;5057118;28;19919;-85
2021/12/30 05:58:53;;;;;;;;;;;13.90;56.50;;;;;;5057550;28;20324;-85
2021/12/30 06:01:18;;;;;;;;;;;13.90;56.60;;;;;;5057930;28;19966;-85
2021/12/30 06:03:44;;;;;;;;;;;13.90;56.70;;;;;;5057615;28;19956;-85
2021/12/30 06:06:09;;;;;;;;;;;13.90;56.40;;;;;;5053327;28;19917;-86
2021/12/30 06:08:35;;;;;;;;;;;13.90;56.20;;;;;;5053828;28;19916;-85
2021/12/30 06:11:00;;;;;;;;;;;13.90;56.40;;;;;;5055890;28;20323;-85
2021/12/30 06:13:26;;;;;;;;;;;13.90;55.20;;;;;;5057298;28;20054;-85
2021/12/30 06:15:51;;;;;;;;;;;14.00;54.50;;;;;;5056006;28;19970;-85
2021/12/30 06:18:17;;;;;;;;;;;14.00;53.00;;;;;;5038535;28;19916;-85
2021/12/30 06:20:42;;;;;;;;;;;14.00;51.60;;;;;;5038623;28;19909;-85
2021/12/30 06:23:08;;;;;;;;;;;14.00;51.30;;;;;;5046669;28;19912;-85
2021/12/30 06:25:33;;;;;;;;;;;14.00;51.10;;;;;;5030330;28;20399;-84
2021/12/30 06:27:59;;;;;;;;;;;14.00;51.90;;;;;;5029481;28;19917;-85
2021/12/30 06:30:24;;;;;;;;;;;14.00;52.40;;;;;;5049251;28;19959;-85
2021/12/30 06:32:50;;;;;;;;;;;14.00;53.20;;;;;;5030016;28;19920;-85
2021/12/30 06:35:15;;;;;;;;;;;14.00;53.90;;;;;;5055059;28;19959;-85
2021/12/30 06:37:41;;;;;;;;;;;14.00;53.80;;;;;;5049364;28;19913;-85
2021/12/30 06:40:08;;;;;;;;;;;14.00;54.00;;;;;;5045801;28;19948;-85
2021/12/30 06:42:33;;;;;;;;;;;14.00;53.70;;;;;;5032617;28;19909;-85
2021/12/30 06:44:59;;;;;;;;;;;14.00;53.90;;;;;;5031653;28;19927;-84
2021/12/30 06:47:24;;;;;;;;;;;14.00;53.50;;;;;;5036794;28;19913;-85
2021/12/30 06:49:51;;;;;;;;;;;14.00;53.20;;;;;;5027492;28;19985;-85
2021/12/30 06:52:17;;;;;;;;;;;14.00;52.70;;;;;;5026095;28;19931;-85
2021/12/30 06:54:42;;;;;;;;;;;14.00;52.20;;;;;;5020254;28;19913;-85
2021/12/30 06:57:11;;;;;;;;;;;14.00;51.50;;;;;;5044336;28;20289;-85
2021/12/30 06:59:36;;;;;;;;;;;14.00;49.90;;;;;;5042567;28;20301;-85
2021/12/30 07:02:04;;;;;;;;;;;14.00;48.60;;;;;;5030186;28;19909;-85
2021/12/30 07:04:30;;;;;;;;;;;14.00;47.30;;;;;;5046412;28;19924;-85
2021/12/30 07:06:55;;;;;;;;;;;14.00;45.50;;;;;;5027626;28;20385;-84
2021/12/30 07:09:21;;;;;;;;;;;14.00;45.00;;;;;;5045514;28;19912;-85
2021/12/30 07:11:50;;;;;;;;;;;14.00;44.30;;;;;;5057204;28;19979;-85
2021/12/30 07:14:17;;;;;;;;;;;14.10;44.30;;;;;;5032827;28;19913;-84
2021/12/30 07:16:44;;;;;;;;;;;14.20;42.00;;;;;;5053317;28;20518;-85
2021/12/30 07:19:10;;;;;;;;;;;14.10;39.70;;;;;;5039776;28;19921;-85
2021/12/30 07:21:36;;;;;;;;;;;14.10;38.80;;;;;;5034831;28;20327;-85
2021/12/30 07:24:02;;;;;;;;;;;14.20;38.00;;;;;;5047870;28;19971;-85
2021/12/30 07:26:27;;;;;;;;;;;14.10;37.30;;;;;;5026754;28;19964;-85
2021/12/30 07:28:53;;;;;;;;;;;14.20;37.20;;;;;;5044607;28;19913;-85
2021/12/30 07:31:21;;;;;;;;;;;14.10;37.60;;;;;;5049715;28;19917;-85
2021/12/30 07:35:15;;;;;;;;;;;13.90;39.40;;;;;;5081338;27;1933161;-84
2021/12/30 07:37:41;;;;;;;;;;;14.10;40.70;;;;;;5130420;27;19919;-84
2021/12/30 07:40:07;;;;;;;;;;;14.00;41.70;;;;;;5130720;27;20409;-84
2021/12/30 07:42:32;;;;;;;;;;;14.10;43.40;;;;;;5130027;27;20384;-84
2021/12/30 07:44:58;;;;;;;;;;;14.10;43.10;;;;;;5123771;28;19965;-85
2021/12/30 07:47:23;;;;;;;;;;;14.10;43.60;;;;;;5122717;28;19954;-84
2021/12/30 07:49:48;;;;;;;;;;;14.10;43.60;;;;;;5129985;27;19912;-84
2021/12/30 07:52:14;;;;;;;;;;;14.20;43.10;;;;;;5121814;28;20010;-84
2021/12/30 07:54:40;;;;;;;;;;;14.10;43.00;;;;;;5125867;28;20397;-84
2021/12/30 07:57:06;;;;;;;;;;;14.10;42.20;;;;;;5130252;27;19967;-84
2021/12/30 07:59:31;;;;;;;;;;;14.10;40.30;;;;;;5115134;28;19995;-84
2021/12/30 08:01:58;;;;;;;;;;;14.10;38.40;;;;;;5123623;28;19985;-84
2021/12/30 08:04:23;;;;;;;;;;;14.10;37.20;;;;;;5129377;27;19918;-84
2021/12/30 08:06:49;;;;;;;;;;;14.10;36.30;;;;;;5127848;27;19911;-85
2021/12/30 08:09:14;;;;;;;;;;;14.20;35.40;;;;;;5123677;28;19911;-84
2021/12/30 08:11:40;;;;;;;;;;;14.20;34.50;;;;;;5127871;28;19912;-84
2021/12/30 08:14:05;;;;;;;;;;;14.30;34.40;;;;;;5123730;28;19916;-84
2021/12/30 08:16:31;;;;;;;;;;;14.10;32.50;;;;;;5123807;28;19916;-84
2021/12/30 08:18:58;;;;;;;;;;;14.20;31.70;;;;;;5132311;27;19918;-85
2021/12/30 08:21:24;;;;;;;;;;;14.20;31.00;;;;;;5129097;28;19919;-83
2021/12/30 08:23:51;;;;;;;;;;;14.30;30.30;;;;;;5124866;27;19912;-84
2021/12/30 08:26:20;;;;;;;;;;;14.20;30.60;;;;;;5125725;28;19971;-83
2021/12/30 08:28:45;;;;;;;;;;;14.30;31.10;;;;;;5114189;28;19915;-84
2021/12/30 08:31:11;;;;;;;;;;;14.30;32.40;;;;;;5132705;27;19912;-83
2021/12/30 08:33:37;;;;;;;;;;;14.20;33.30;;;;;;5124740;28;20552;-84
2021/12/30 08:36:03;;;;;;;;;;;14.20;35.00;;;;;;5127488;27;19915;-84
2021/12/30 08:38:28;;;;;;;;;;;14.20;35.50;;;;;;5133978;27;19908;-84
2021/12/30 08:40:54;;;;;;;;;;;14.20;35.20;;;;;;5125937;27;19912;-85
2021/12/30 08:43:19;;;;;;;;;;;14.30;34.10;;;;;;5134311;27;19907;-84
2021/12/30 08:45:45;;;;;;;;;;;14.20;32.10;;;;;;5117175;28;19911;-83
2021/12/30 08:48:11;;;;;;;;;;;14.30;30.00;;;;;;5113080;28;19954;-84
2021/12/30 08:50:36;;;;;;;;;;;14.30;27.80;;;;;;5118399;28;20372;-84
2021/12/30 08:53:02;;;;;;;;;;;14.40;23.50;;;;;;5117810;28;19907;-84
2021/12/30 08:55:28;;;;;;;;;;;14.40;18.00;;;;;;5102992;28;19920;-82
2021/12/30 08:57:53;;;;;;;;;;;14.50;12.80;;;;;;5114483;28;19939;-83
2021/12/30 09:00:23;;;;;;;;;;;14.60;8.40;;;;;;5117645;28;19912;-84
2021/12/30 09:02:50;;;;;;;;;;;14.60;2.00;;;;;;5111981;28;20429;-83
2021/12/30 09:05:16;;;;;;;;;;;14.60;1.00;;;;;;5114470;28;19916;-82
2021/12/30 09:07:41;;;;;;;;;;;14.70;1.00;;;;;;5118755;28;19933;-83
2021/12/30 09:10:08;;;;;;;;;;;14.70;1.00;;;;;;5116252;28;20423;-83
2021/12/30 09:12:34;;;;;;;;;;;14.80;1.00;;;;;;5112687;28;19916;-83
2021/12/30 09:15:00;;;;;;;;;;;14.80;1.00;;;;;;5108128;28;20303;-83
2021/12/30 09:17:25;;;;;;;;;;;14.80;1.00;;;;;;5108482;28;19912;-83
2021/12/30 09:19:51;;;;;;;;;;;14.80;1.00;;;;;;5112693;28;20049;-83
2021/12/30 09:22:16;;;;;;;;;;;14.80;1.00;;;;;;5107493;28;20033;-83
2021/12/30 09:24:42;;;;;;;;;;;14.80;1.00;;;;;;5116679;28;19919;-84
2021/12/30 09:27:08;;;;;;;;;;;14.80;1.00;;;;;;5099371;28;19912;-82
2021/12/30 09:29:33;;;;;;;;;;;14.90;1.00;;;;;;5104937;28;19954;-82
2021/12/30 09:31:58;;;;;;;;;;;14.80;1.00;;;;;;5109970;28;19912;-82
2021/12/30 09:34:24;;;;;;;;;;;14.80;1.00;;;;;;5114369;28;19923;-82
2021/12/30 09:36:50;;;;;;;;;;;14.90;1.00;;;;;;5101324;28;19912;-81
2021/12/30 09:39:15;;;;;;;;;;;14.80;1.00;;;;;;5109557;28;19965;-82
2021/12/30 09:41:43;;;;;;;;;;;14.80;1.00;;;;;;5110860;28;19916;-82
2021/12/30 09:44:10;;;;;;;;;;;14.90;1.00;;;;;;5105627;28;20395;-82
2021/12/30 09:46:36;;;;;;;;;;;14.90;1.00;;;;;;5112134;28;19911;-83
2021/12/30 09:49:03;;;;;;;;;;;15.00;1.00;;;;;;5105885;28;19919;-82
2021/12/30 09:51:29;;;;;;;;;;;15.00;1.00;;;;;;5110887;28;19912;-83
2021/12/30 09:53:54;;;;;;;;;;;15.00;1.00;;;;;;5106121;28;19916;-82
2021/12/30 09:56:20;;;;;;;;;;;15.00;1.00;;;;;;5116303;28;19991;-82
2021/12/30 09:58:46;;;;;;;;;;;15.00;1.00;;;;;;5104319;28;19912;-82
2021/12/30 10:01:11;;;;;;;;;;;15.00;1.00;;;;;;5112425;28;19915;-82
2021/12/30 10:03:37;;;;;;;;;;;15.00;1.00;;;;;;5105669;28;19951;-82
2021/12/30 10:06:10;;;;;;;;;;;15.10;1.00;;;;;;5107344;28;19919;-82
2021/12/30 10:08:40;;;;;;;;;;;15.10;1.00;;;;;;5112408;28;19912;-82
2021/12/30 10:11:12;;;;;;;;;;;15.30;1.00;;;;;;5106203;28;19938;-82
2021/12/30 10:13:40;;;;;;;;;;;15.20;1.00;;;;;;5108854;28;19927;-84
2021/12/30 10:16:12;;;;;;;;;;;15.20;1.00;;;;;;5113094;28;19911;-83
2021/12/30 10:18:44;;;;;;;;;;;15.30;1.00;;;;;;5111057;28;19935;-82
2021/12/30 10:21:13;;;;;;;;;;;15.30;1.00;;;;;;5105196;28;19964;-82
2021/12/30 10:23:47;;;;;;;;;;;15.40;1.00;;;;;;5117635;28;19908;-82
2021/12/30 10:26:13;;;;;;;;;;;15.60;1.00;;;;;;5104262;28;20375;-82
2021/12/30 10:28:40;;;;;;;;;;;15.80;1.00;;;;;;5108814;28;19937;-82
2021/12/30 10:31:11;;;;;;;;;;;15.70;1.00;;;;;;5102591;28;19935;-82
2021/12/30 10:33:45;;;;;;;;;;;15.80;1.00;;;;;;5111088;28;21009;-82
2021/12/30 10:36:14;;;;;;;;;;;15.80;1.00;;;;;;5112116;28;19916;-82
2021/12/30 10:38:40;;;;;;;;;;;15.90;1.00;;;;;;5109684;28;19914;-82
2021/12/30 10:41:05;;;;;;;;;;;15.90;1.00;;;;;;5109475;28;19959;-82
2021/12/30 10:43:37;;;;;;;;;;;16.00;1.00;;;;;;5117137;28;19911;-83
2021/12/30 10:46:08;;;;;;;;;;;16.00;1.00;;;;;;5110695;27;19912;-83
2021/12/30 10:48:34;;;;;;;;;;;15.90;1.00;;;;;;5126301;27;19952;-83
2021/12/30 10:51:13;;;;;;;;;;;15.90;1.00;;;;;;5117730;28;19950;-82
2021/12/30 10:53:39;;;;;;;;;;;15.90;1.00;;;;;;5104844;28;19912;-83
2021/12/30 10:56:22;;;;;;;;;;;15.90;1.00;;;;;;5112129;28;20017;-83
2021/12/30 10:58:48;;;;;;;;;;;15.80;1.00;;;;;;5110125;28;19916;-84
2021/12/30 11:01:15;;;;;;;;;;;15.80;1.00;;;;;;5113236;28;19919;-83
2021/12/30 11:03:42;;;;;;;;;;;15.70;1.00;;;;;;5111704;28;19912;-83
2021/12/30 11:06:17;;;;;;;;;;;15.70;1.00;;;;;;5109621;28;19916;-83
2021/12/30 11:08:46;;;;;;;;;;;15.60;1.00;;;;;;5114079;28;19935;-83
2021/12/30 11:11:28;;;;;;;;;;;15.70;1.00;;;;;;5110556;28;20398;-82
2021/12/30 11:13:57;;;;;;;;;;;15.50;1.00;;;;;;5112788;28;19959;-83
2021/12/30 11:16:23;;;;;;;;;;;15.50;1.00;;;;;;5109850;28;19916;-83
2021/12/30 11:18:48;;;;;;;;;;;15.50;1.00;;;;;;5113413;28;20011;-82
2021/12/30 11:21:33;;;;;;;;;;;15.50;1.00;;;;;;5111548;28;19912;-83
2021/12/30 11:23:59;;;;;;;;;;;15.40;1.00;;;;;;5113985;28;19912;-83
2021/12/30 11:26:24;;;;;;;;;;;15.40;1.00;;;;;;5111557;28;19912;-83
2021/12/30 11:28:50;;;;;;;;;;;15.50;1.00;;;;;;5099570;28;19951;-83
2021/12/30 11:31:16;;;;;;;;;;;15.50;1.00;;;;;;5112382;28;19918;-82
2021/12/30 11:33:41;;;;;;;;;;;15.40;1.00;;;;;;5115465;28;19937;-82
2021/12/30 11:36:07;;;;;;;;;;;15.60;1.00;;;;;;5111106;28;19923;-83
2021/12/30 11:38:32;;;;;;;;;;;15.70;1.00;;;;;;5118628;28;20045;-82
2021/12/30 11:40:58;;;;;;;;;;;15.80;1.00;;;;;;5113711;28;19935;-83
2021/12/30 11:43:23;;;;;;;;;;;15.80;1.00;;;;;;5109944;28;19908;-83
2021/12/30 11:45:49;;;;;;;;;;;16.00;99.90;;;;;;5112213;28;19912;-82
2021/12/30 11:48:20;;;;;;;;;;;16.20;99.90;;;;;;5109487;28;20019;-84
2021/12/30 11:50:46;;;;;;;;;;;16.30;99.90;;;;;;5110721;28;19912;-83
2021/12/30 11:53:12;;;;;;;;;;;16.40;99.90;;;;;;5115031;28;19919;-82
2021/12/30 11:55:46;;;;;;;;;;;16.50;99.90;;;;;;5113163;28;19923;-82
2021/12/30 11:58:27;;;;;;;;;;;16.40;1.00;;;;;;5112398;28;19919;-82
2021/12/30 12:00:54;;;;;;;;;;;16.30;9.90;;;;;;5116192;28;19912;-82
2021/12/30 12:03:36;;;;;;;;;;;16.30;8.80;;;;;;5106437;28;19918;-83
2021/12/30 12:06:05;;;;;;;;;;;16.20;1.00;;;;;;5115373;28;19957;-83
2021/12/30 12:08:43;;;;;;;;;;;16.20;1.00;;;;;;5125570;28;19935;-83
2021/12/30 12:11:18;;;;;;;;;;;16.20;1.00;;;;;;5117249;28;20363;-83
2021/12/30 12:13:45;;;;;;;;;;;16.20;1.00;;;;;;5116643;28;19961;-83
2021/12/30 12:16:12;;;;;;;;;;;16.10;4.10;;;;;;5111782;28;19911;-82
2021/12/30 12:18:43;;;;;;;;;;;16.10;11.30;;;;;;5112613;28;19920;-83
2021/12/30 12:21:08;;;;;;;;;;;16.00;38.90;;;;;;5112079;28;19912;-82
2021/12/30 12:23:36;;;;;;;;;;;16.00;27.10;;;;;;5116334;28;19920;-83
2021/12/30 12:26:06;;;;;;;;;;;16.10;1.00;;;;;;5102957;28;19920;-83
2021/12/30 12:28:32;;;;;;;;;;;16.10;1.00;;;;;;5121013;28;19908;-83
2021/12/30 12:30:57;;;;;;;;;;;16.10;1.00;;;;;;5118853;28;19916;-82
2021/12/30 12:33:24;;;;;;;;;;;16.10;1.00;;;;;;5123965;28;19962;-84
2021/12/30 12:35:50;;;;;;;;;;;16.10;1.00;;;;;;5105556;28;19907;-82
2021/12/30 12:38:34;;;;;;;;;;;16.10;1.00;;;;;;5105877;28;19951;-82
2021/12/30 12:41:02;;;;;;;;;;;16.10;1.00;;;;;;5129313;28;19919;-83
2021/12/30 12:43:28;;;;;;;;;;;16.10;1.00;;;;;;5125811;28;19911;-83
2021/12/30 12:46:01;;;;;;;;;;;16.10;1.00;;;;;;5108032;28;19922;-82
2021/12/30 12:48:34;;;;;;;;;;;16.10;1.00;;;;;;5119929;28;19911;-83
2021/12/30 12:51:19;;;;;;;;;;;16.10;1.00;;;;;;5126969;28;20593;-82
2021/12/30 12:53:46;;;;;;;;;;;16.10;99.90;;;;;;5115953;28;20384;-83
2021/12/30 12:56:13;;;;;;;;;;;16.10;1.00;;;;;;5108042;28;19909;-83
2021/12/30 12:58:49;;;;;;;;;;;16.10;1.00;;;;;;5117748;28;20049;-83
2021/12/30 13:01:16;;;;;;;;;;;15.90;1.00;;;;;;5134829;27;19923;-83
2021/12/30 13:03:42;;;;;;;;;;;15.90;1.00;;;;;;5105900;28;19919;-82
2021/12/30 13:06:14;;;;;;;;;;;15.90;1.00;;;;;;5116430;28;19908;-82
2021/12/30 13:08:41;;;;;;;;;;;15.90;1.00;;;;;;5105607;28;20687;-82
2021/12/30 13:11:08;;;;;;;;;;;15.80;1.00;;;;;;5119915;28;20357;-83
2021/12/30 13:13:33;;;;;;;;;;;15.90;1.00;;;;;;5126245;28;19911;-82
2021/12/30 13:15:59;;;;;;;;;;;15.80;1.00;;;;;;5124587;28;20000;-82
2021/12/30 13:18:25;;;;;;;;;;;15.80;1.00;;;;;;5105245;28;20521;-83
2021/12/30 13:20:52;;;;;;;;;;;15.80;1.00;;;;;;5104872;28;19961;-82
2021/12/30 13:23:28;;;;;;;;;;;15.80;1.00;;;;;;5122161;28;19912;-83
2021/12/30 13:26:04;;;;;;;;;;;15.80;1.00;;;;;;5126314;28;19947;-83
2021/12/30 13:28:30;;;;;;;;;;;15.80;1.00;;;;;;5125180;28;19990;-83
2021/12/30 13:31:06;;;;;;;;;;;15.80;1.00;;;;;;5125480;28;19908;-82
2021/12/30 13:33:33;;;;;;;;;;;15.70;1.00;;;;;;5120188;28;19916;-82
2021/12/30 13:35:58;;;;;;;;;;;15.80;1.00;;;;;;5103904;28;20026;-82
2021/12/30 13:38:24;;;;;;;;;;;15.90;1.00;;;;;;5124317;28;19911;-82
2021/12/30 13:40:49;;;;;;;;;;;15.80;1.00;;;;;;5123167;28;19918;-82
2021/12/30 13:43:20;;;;;;;;;;;15.90;99.90;;;;;;5102608;28;20245;-84
2021/12/30 13:45:45;;;;;;;;;;;15.90;99.90;;;;;;5103663;28;19939;-82
2021/12/30 13:48:31;;;;;;;;;;;15.90;1.00;;;;;;5135463;27;19915;-82
2021/12/30 13:50:56;;;;;;;;;;;15.90;1.00;;;;;;5103129;28;19912;-83
2021/12/30 13:53:24;;;;;;;;;;;15.90;1.00;;;;;;5136341;27;20003;-83
2021/12/30 13:55:50;;;;;;;;;;;16.00;1.00;;;;;;5118682;28;19915;-82
2021/12/30 13:58:20;;;;;;;;;;;15.90;1.00;;;;;;5124350;28;19908;-82
2021/12/30 14:00:48;;;;;;;;;;;15.90;1.00;;;;;;5115493;28;19916;-82
2021/12/30 14:03:15;;;;;;;;;;;15.90;1.00;;;;;;5123313;28;19916;-82
2021/12/30 14:05:44;;;;;;;;;;;15.80;1.00;;;;;;5106257;28;19919;-83
2021/12/30 14:08:12;;;;;;;;;;;15.80;1.00;;;;;;5104699;28;19908;-82
2021/12/30 14:10:57;;;;;;;;;;;15.70;1.00;;;;;;5106714;28;19916;-83
2021/12/30 14:13:33;;;;;;;;;;;15.70;1.00;;;;;;5104663;28;19919;-82
2021/12/30 14:15:58;;;;;;;;;;;15.70;1.00;;;;;;5127319;27;20296;-82
2021/12/30 14:18:31;;;;;;;;;;;15.60;1.00;;;;;;5105467;28;20007;-82
2021/12/30 14:20:57;;;;;;;;;;;15.60;1.00;;;;;;5109381;28;19916;-83
2021/12/30 14:23:30;;;;;;;;;;;15.60;1.00;;;;;;5125114;28;19947;-83